createdAt,value
2022-11-03T00:01:51.010Z,99736.99
2022-11-03T00:06:55.915Z,99736.83
2022-11-03T00:11:59.096Z,99735.48
2022-11-03T00:17:02.318Z,99744.55
2022-11-03T00:22:05.359Z,99747.58
2022-11-03T00:27:08.268Z,99750.55
2022-11-03T00:32:11.231Z,99752.48
2022-11-03T00:37:14.284Z,99758.18
2022-11-03T00:42:17.274Z,99755.05
2022-11-03T00:47:23.312Z,99749.55
2022-11-03T00:52:27.379Z,99742.23
2022-11-03T00:57:30.329Z,99741.81
2022-11-03T01:02:33.382Z,99742.29
2022-11-03T01:07:36.451Z,99749.70
2022-11-03T01:12:39.410Z,99752.96
2022-11-03T01:17:42.340Z,99750.80
2022-11-03T01:22:45.244Z,99756.54
2022-11-03T01:27:48.152Z,99760.93
2022-11-03T01:32:51.140Z,99767.59
2022-11-03T01:37:56.612Z,99769.24
2022-11-03T01:43:18.567Z,99768.22
2022-11-03T01:48:23.015Z,99773.63
2022-11-03T01:53:27.662Z,99770.91
2022-11-03T01:58:37.440Z,99765.17
2022-11-03T02:03:46.264Z,99752.52
2022-11-03T02:09:00.555Z,99749.17
2022-11-03T02:14:04.058Z,99749.45
2022-11-03T02:19:14.933Z,99748.95
2022-11-03T02:24:37.486Z,99755.89
2022-11-03T02:29:40.492Z,99757.56
2022-11-03T02:34:50.356Z,99758.27
2022-11-03T02:40:15.244Z,99762.66
2022-11-03T02:45:21.814Z,99763.38
2022-11-03T02:50:29.593Z,99763.34
2022-11-03T02:55:36.303Z,99768.36
2022-11-03T03:00:49.894Z,99768.74
2022-11-03T03:05:57.812Z,99770.80
2022-11-03T03:11:03.390Z,99772.61
2022-11-03T03:16:16.924Z,99772.52
2022-11-03T03:21:25.487Z,99771.67
2022-11-03T03:26:31.084Z,99772.83
2022-11-03T03:31:38.538Z,99770.05
2022-11-03T03:36:44.719Z,99770.88
2022-11-03T03:41:48.589Z,99774.18
2022-11-03T03:46:59.973Z,99778.91
2022-11-03T03:52:04.035Z,99781.99
2022-11-03T03:57:10.424Z,99773.02
2022-11-03T04:02:14.084Z,99773.22
2022-11-03T04:07:40.728Z,99770.86
2022-11-03T04:13:05.395Z,99771.52
2022-11-03T04:18:27.097Z,99768.67
2022-11-03T04:23:30.261Z,99764.48
2022-11-03T04:28:33.215Z,99766.46
2022-11-03T04:33:36.165Z,99767.41
2022-11-03T04:38:39.620Z,99766.19
2022-11-03T04:43:43.036Z,99761.48
2022-11-03T04:48:47.616Z,99760.73
2022-11-03T04:53:54.415Z,99759.13
2022-11-03T04:58:58.319Z,99758.67
2022-11-03T05:04:01.344Z,99761.66
2022-11-03T05:09:29.484Z,99760.59
2022-11-03T05:14:33.042Z,99766.58
2022-11-03T05:19:41.816Z,99768.08
2022-11-03T05:24:45.104Z,99768.16
2022-11-03T05:29:50.074Z,99771.17
2022-11-03T05:35:02.582Z,99771.77
2022-11-03T05:40:21.682Z,99764.76
2022-11-03T05:45:31.086Z,99763.96
2022-11-03T05:50:35.244Z,99760.16
2022-11-03T05:55:38.235Z,99757.61
2022-11-03T06:00:48.213Z,99759.55
2022-11-03T06:05:53.528Z,99763.02
2022-11-03T06:10:58.614Z,99763.48
2022-11-03T06:16:26.636Z,99759.52
2022-11-03T06:21:30.690Z,99761.88
2022-11-03T06:26:33.596Z,99764.29
2022-11-03T06:31:38.759Z,99770.56
2022-11-03T06:36:41.879Z,99774.02
2022-11-03T06:41:44.896Z,99777.95
2022-11-03T06:46:47.833Z,99780.11
2022-11-03T06:51:51.042Z,99782.86
2022-11-03T06:56:54.222Z,99792.11
2022-11-03T07:01:57.151Z,99789.43
2022-11-03T07:07:03.177Z,99788.66
2022-11-03T07:12:17.084Z,99791.80
2022-11-03T07:17:22.698Z,99787.30
2022-11-03T07:22:27.194Z,99773.69
2022-11-03T07:27:35.619Z,99766.95
2022-11-03T07:32:39.389Z,99762.55
2022-11-03T07:37:42.514Z,99756.64
2022-11-03T07:42:45.620Z,99750.59
2022-11-03T07:47:48.484Z,99743.60
2022-11-03T07:52:51.701Z,99737.70
2022-11-03T07:57:54.599Z,99730.52
2022-11-03T08:03:00.718Z,99724.09
2022-11-03T08:08:04.591Z,99716.41
2022-11-03T08:13:07.996Z,99704.45
2022-11-03T08:18:11.246Z,99694.35
2022-11-03T08:23:29.888Z,99683.95
2022-11-03T08:28:33.859Z,99679.40
2022-11-03T08:33:36.840Z,99680.40
2022-11-03T08:38:39.807Z,99680.17
2022-11-03T08:43:42.773Z,99676.66
2022-11-03T08:48:46.709Z,99669.44
2022-11-03T08:53:54.104Z,99660.36
2022-11-03T08:58:57.081Z,99657.23
2022-11-03T09:04:00.236Z,99648.93
2022-11-03T09:14:26.256Z,99641.33
2022-11-03T09:19:29.290Z,99642.45
2022-11-03T09:24:32.462Z,99642.61
2022-11-03T09:29:58.608Z,99632.83
2022-11-03T09:34:58.275Z,99626.45
2022-11-03T09:40:01.220Z,99622.89
2022-11-03T09:45:05.578Z,99614.52
2022-11-03T09:50:17.811Z,99609.15
2022-11-03T09:55:27.626Z,99600.45
2022-11-03T10:00:30.761Z,99594.98
2022-11-03T10:05:34.038Z,99589.45
2022-11-03T10:10:37.975Z,99582.59
2022-11-03T10:15:42.261Z,99573.55
2022-11-03T10:20:45.508Z,99564.98
2022-11-03T10:25:48.735Z,99554.14
2022-11-03T10:31:12.907Z,99550.50
2022-11-03T10:36:16.380Z,99538.43
2022-11-03T10:41:26.417Z,99532.77
2022-11-03T10:46:50.068Z,99522.70
2022-11-03T10:51:54.824Z,99519.70
2022-11-03T10:56:58.343Z,99517.36
2022-11-03T11:02:02.049Z,99510.22
2022-11-03T11:07:18.293Z,99496.35
2022-11-03T11:12:25.844Z,99487.39
2022-11-03T11:17:37.913Z,99475.11
2022-11-03T11:22:40.970Z,99465.89
2022-11-03T11:27:43.814Z,99456.40
2022-11-03T11:32:46.757Z,99445.93
2022-11-03T11:37:49.692Z,99440.79
2022-11-03T11:43:01.551Z,99435.67
2022-11-03T11:48:19.080Z,99425.91
2022-11-03T11:53:26.287Z,99415.37
2022-11-03T11:58:43.952Z,99407.80
2022-11-03T12:03:48.165Z,99392.87
2022-11-03T12:08:51.164Z,99380.42
2022-11-03T12:13:54.152Z,99368.73
2022-11-03T12:18:58.722Z,99359.38
2022-11-03T12:24:01.580Z,99349.09
2022-11-03T12:29:11.882Z,99343.45
2022-11-03T12:34:14.910Z,99338.28
2022-11-03T12:39:17.849Z,99332.52
2022-11-03T12:44:20.811Z,99322.34
2022-11-03T12:49:23.905Z,99302.55
2022-11-03T12:54:26.771Z,99294.10
2022-11-03T12:59:29.955Z,99287.27
2022-11-03T13:04:32.814Z,99289.16
2022-11-03T13:09:36.114Z,99286.65
2022-11-03T13:14:39.811Z,99286.01
2022-11-03T13:19:44.979Z,99276.73
2022-11-03T13:24:47.959Z,99273.37
2022-11-03T13:29:50.940Z,99269.27
2022-11-03T13:34:53.876Z,99259.89
2022-11-03T13:39:56.769Z,99254.30
2022-11-03T13:44:59.781Z,99254.11
2022-11-03T13:50:19.321Z,99256.40
2022-11-03T14:00:45.631Z,99239.64
2022-11-03T14:05:48.576Z,99237.80
2022-11-03T14:10:51.594Z,99227.02
2022-11-03T14:15:56.708Z,99222.63
2022-11-03T14:20:59.713Z,99214.31
2022-11-03T14:26:21.215Z,99206.09
2022-11-03T14:31:26.911Z,99203.60
2022-11-03T14:36:29.859Z,99199.52
2022-11-03T14:41:51.293Z,99199.43
2022-11-03T14:46:54.264Z,99196.59
2022-11-03T14:51:58.171Z,99193.11
2022-11-03T14:57:02.035Z,99190.89
2022-11-03T15:02:06.341Z,99184.95
2022-11-03T15:07:09.452Z,99179.23
2022-11-03T15:12:12.441Z,99171.84
2022-11-03T15:17:15.333Z,99172.92
2022-11-03T15:22:18.865Z,99175.67
2022-11-03T15:27:22.363Z,99172.91
2022-11-03T15:32:25.216Z,99164.63
2022-11-03T15:37:28.118Z,99160.32
2022-11-03T15:42:31.186Z,99164.00
2022-11-03T15:47:34.302Z,99161.14
2022-11-03T15:52:38.207Z,99160.86
2022-11-03T15:57:41.188Z,99157.96
2022-11-03T16:02:44.362Z,99158.11
2022-11-03T16:07:47.518Z,99161.18
2022-11-03T16:12:50.509Z,99152.95
2022-11-03T16:17:53.528Z,99145.02
2022-11-03T16:22:56.867Z,99139.98
2022-11-03T16:27:59.772Z,99127.65
2022-11-03T16:33:02.885Z,99119.95
2022-11-03T16:38:08.163Z,99103.20
2022-11-03T16:43:11.890Z,99101.77
2022-11-03T16:48:14.952Z,99097.58
2022-11-03T16:53:18.175Z,99098.61
2022-11-03T16:58:21.110Z,99099.59
2022-11-03T17:03:24.217Z,99099.95
2022-11-03T17:08:53.791Z,99092.39
2022-11-03T17:13:50.275Z,99089.22
2022-11-03T17:18:53.250Z,99090.02
2022-11-03T17:23:56.625Z,99082.95
2022-11-03T17:28:59.666Z,99074.50
2022-11-03T17:34:03.582Z,99057.98
2022-11-03T17:39:06.613Z,99045.44
2022-11-03T17:44:12.038Z,99035.86
2022-11-03T17:49:14.981Z,99026.73
2022-11-03T17:54:17.883Z,99028.27
2022-11-03T17:59:21.487Z,99020.73
2022-11-03T18:04:24.430Z,99017.49
2022-11-03T18:09:27.407Z,99014.55
2022-11-03T18:14:30.587Z,99010.67
2022-11-03T18:19:34.556Z,99008.45
2022-11-03T18:24:37.548Z,99008.98
2022-11-03T18:29:40.586Z,99007.66
2022-11-03T18:34:43.691Z,99003.00
2022-11-03T18:39:46.637Z,98997.22
2022-11-03T18:44:49.666Z,98986.61
2022-11-03T18:49:52.569Z,98977.54
2022-11-03T18:54:55.605Z,98966.54
2022-11-03T18:59:58.672Z,98955.66
2022-11-03T19:05:01.843Z,98944.10
2022-11-03T19:10:06.991Z,98936.33
2022-11-03T19:15:19.406Z,98923.49
2022-11-03T19:20:25.599Z,98918.52
2022-11-03T19:25:28.599Z,98909.41
2022-11-03T19:30:32.124Z,98901.98
2022-11-03T19:35:35.490Z,98891.69
2022-11-03T19:40:39.664Z,98889.24
2022-11-03T19:45:42.744Z,98885.77
2022-11-03T19:50:46.195Z,98880.02
2022-11-03T19:55:49.919Z,98873.80
2022-11-03T20:00:53.715Z,98865.60
2022-11-03T20:05:58.021Z,98852.52
2022-11-03T20:11:01.263Z,98849.80
2022-11-03T20:16:10.154Z,98848.59
2022-11-03T20:21:16.944Z,98840.98
2022-11-03T20:26:22.955Z,98833.89
2022-11-03T20:31:25.885Z,98827.31
2022-11-03T20:36:31.094Z,98817.66
2022-11-03T20:41:34.620Z,98815.77
2022-11-03T20:46:37.656Z,98815.90
2022-11-03T20:51:43.608Z,98811.88
2022-11-03T20:56:47.732Z,98800.34
2022-11-03T21:01:52.157Z,98798.17
2022-11-03T21:06:56.260Z,98797.50
2022-11-03T21:12:02.229Z,98796.56
2022-11-03T21:17:30.737Z,98787.30
2022-11-03T21:22:53.716Z,98779.34
2022-11-03T21:27:57.282Z,98768.46
2022-11-03T21:33:00.307Z,98765.40
2022-11-03T21:38:03.487Z,98758.04
2022-11-03T21:43:32.171Z,98750.91
2022-11-03T21:48:55.307Z,98754.96
2022-11-03T21:53:58.392Z,98753.06
2022-11-03T21:59:01.349Z,98747.07
2022-11-03T22:04:04.632Z,98739.20
2022-11-03T22:09:07.653Z,98731.14
2022-11-03T22:14:14.546Z,98726.42
2022-11-03T22:19:40.756Z,98719.49
2022-11-03T22:25:02.833Z,98713.39
2022-11-03T22:30:24.949Z,98720.59
2022-11-03T22:35:46.143Z,98702.27
2022-11-03T22:41:13.296Z,98695.21
2022-11-03T22:46:21.081Z,98691.05
2022-11-03T22:51:24.746Z,98679.59
2022-11-03T22:56:30.244Z,98674.06
2022-11-03T23:01:34.027Z,98666.16
2022-11-03T23:06:40.521Z,98662.99
2022-11-03T23:11:43.707Z,98658.14
2022-11-03T23:16:46.650Z,98653.63
2022-11-03T23:21:52.318Z,98645.82
2022-11-03T23:26:55.457Z,98638.02
2022-11-03T23:31:59.677Z,98625.45
2022-11-03T23:37:02.994Z,98610.64
2022-11-03T23:42:06.105Z,98608.41
2022-11-03T23:47:27.937Z,98603.71
2022-11-03T23:52:30.873Z,98592.17
2022-11-03T23:57:52.079Z,98598.73
